createdAt,value
2023-01-29T00:51:16.155Z,5.40
2023-01-29T00:57:17.920Z,2.90
2023-01-29T00:59:57.859Z,3.63
2023-01-29T01:03:23.781Z,3.85
2023-01-29T01:06:14.098Z,3.80
2023-01-29T01:11:59.151Z,2.10
2023-01-29T01:14:31.357Z,2.67
2023-01-29T01:17:03.066Z,2.03
2023-01-29T01:19:57.056Z,2.17
2023-01-29T01:23:01.116Z,3.67
2023-01-29T01:25:37.767Z,1.97
2023-01-29T01:28:10.943Z,2.57
2023-01-29T01:30:38.062Z,3.03
2023-01-29T01:33:10.312Z,2.03
2023-01-29T01:35:51.739Z,2.57
2023-01-29T01:38:30.336Z,3.73
2023-01-29T01:41:02.164Z,2.50
2023-01-29T01:46:45.773Z,2.27
2023-01-29T01:49:27.367Z,3.53
2023-01-29T01:52:08.250Z,3.00
2023-01-29T01:54:44.556Z,3.15
2023-01-29T01:57:29.963Z,2.47
2023-01-29T02:00:20.032Z,2.67
2023-01-29T02:03:30.292Z,2.97
2023-01-29T02:06:25.844Z,3.50
2023-01-29T02:09:58.481Z,2.17
2023-01-29T02:12:41.458Z,2.83
2023-01-29T02:19:02.533Z,3.27
2023-01-29T02:27:01.947Z,3.13
2023-01-29T02:30:20.807Z,4.27
2023-01-29T02:33:39.048Z,11.43
2023-01-29T02:53:57.285Z,3.33
2023-01-29T02:56:58.202Z,4.70
2023-01-29T02:59:54.479Z,2.67
2023-01-29T03:02:50.584Z,5.47
2023-01-29T03:05:37.349Z,3.50
2023-01-29T03:08:17.571Z,3.87
2023-01-29T03:11:10.524Z,5.35
2023-01-29T03:14:04.720Z,1.87
2023-01-29T03:16:55.911Z,2.13
2023-01-29T03:22:38.115Z,2.97
2023-01-29T03:25:27.207Z,3.83
2023-01-29T03:28:24.524Z,3.43
2023-01-29T03:31:16.388Z,3.77
2023-01-29T03:34:40.788Z,5.60
2023-01-29T03:37:35.875Z,3.47
2023-01-29T03:40:06.914Z,5.13
2023-01-29T03:42:51.688Z,2.55
2023-01-29T03:45:34.446Z,2.53
2023-01-29T03:48:33.119Z,4.13
2023-01-29T03:51:16.440Z,5.93
2023-01-29T03:53:44.829Z,3.40
2023-01-29T03:56:23.777Z,3.93
2023-01-29T03:59:14.049Z,2.73
2023-01-29T04:01:56.537Z,6.87
2023-01-29T04:04:36.987Z,3.70
2023-01-29T04:07:13.772Z,5.13
2023-01-29T04:09:51.749Z,12.50
2023-01-29T04:12:26.263Z,11.33
2023-01-29T04:14:54.762Z,22.47
2023-01-29T04:17:33.084Z,14.00
2023-01-29T04:20:01.661Z,7.13
2023-01-29T04:22:34.374Z,4.20
2023-01-29T04:25:08.636Z,5.80
2023-01-29T04:27:55.839Z,5.27
2023-01-29T04:31:00.934Z,5.43
2023-01-29T04:33:49.655Z,3.37
2023-01-29T04:36:39.044Z,2.33
2023-01-29T04:39:31.055Z,2.43
2023-01-29T04:42:13.717Z,3.17
2023-01-29T04:44:50.908Z,2.57
2023-01-29T04:47:42.169Z,4.03
2023-01-29T04:50:26.800Z,2.37
2023-01-29T04:53:07.361Z,3.53
2023-01-29T04:55:49.699Z,2.92
2023-01-29T04:58:22.258Z,3.10
2023-01-29T05:00:53.491Z,3.67
2023-01-29T05:03:24.494Z,2.00
2023-01-29T05:08:21.527Z,3.87
2023-01-29T05:10:50.551Z,2.75
2023-01-29T05:13:19.185Z,2.23
2023-01-29T05:16:11.075Z,2.77
2023-01-29T05:18:37.965Z,3.60
2023-01-29T05:21:07.802Z,2.60
2023-01-29T05:23:34.660Z,3.90
2023-01-29T05:26:01.334Z,2.50
2023-01-29T05:28:27.991Z,4.00
2023-01-29T05:30:56.811Z,3.83
2023-01-29T05:33:29.035Z,3.40
2023-01-29T05:35:57.124Z,2.33
2023-01-29T05:38:23.710Z,3.20
2023-01-29T05:40:50.395Z,2.70
2023-01-29T05:43:20.121Z,4.03
2023-01-29T05:45:58.312Z,4.90
2023-01-29T05:48:27.721Z,5.30
2023-01-29T05:50:54.796Z,3.97
2023-01-29T05:53:21.342Z,2.63
2023-01-29T05:55:48.637Z,5.50
2023-01-29T05:58:15.496Z,3.50
2023-01-29T06:00:42.098Z,2.73
2023-01-29T06:03:08.828Z,2.20
2023-01-29T06:05:38.401Z,3.57
2023-01-29T06:08:05.519Z,3.10
2023-01-29T06:10:32.202Z,3.20
2023-01-29T06:12:58.829Z,3.70
2023-01-29T06:15:26.540Z,6.07
2023-01-29T06:17:57.401Z,4.60
2023-01-29T06:20:24.332Z,4.13
2023-01-29T06:22:50.916Z,4.37
2023-01-29T06:25:17.488Z,4.60
2023-01-29T06:27:44.108Z,5.40
2023-01-29T06:30:11.291Z,5.07
2023-01-29T06:32:38.596Z,5.33
2023-01-29T06:35:05.750Z,2.07
2023-01-29T06:37:32.322Z,3.67
2023-01-29T06:39:58.958Z,3.47
2023-01-29T06:42:27.959Z,4.27
2023-01-29T06:44:57.952Z,3.70
2023-01-29T06:47:25.115Z,2.93
2023-01-29T06:49:52.175Z,3.40
2023-01-29T06:52:18.815Z,3.00
2023-01-29T06:54:45.444Z,2.40
2023-01-29T06:57:12.020Z,1.57
2023-01-29T06:59:38.658Z,5.93
2023-01-29T07:02:05.343Z,2.90
2023-01-29T07:04:32.019Z,3.87
2023-01-29T07:06:59.983Z,5.67
2023-01-29T07:09:26.681Z,4.43
2023-01-29T07:11:53.306Z,4.93
2023-01-29T07:14:19.873Z,4.17
2023-01-29T07:16:46.495Z,4.87
2023-01-29T07:19:13.713Z,3.43
2023-01-29T07:21:40.303Z,4.57
2023-01-29T07:24:07.178Z,4.30
2023-01-29T07:26:33.804Z,5.73
2023-01-29T07:29:00.386Z,3.97
2023-01-29T07:31:27.120Z,4.63
2023-01-29T07:33:53.829Z,4.67
2023-01-29T07:36:20.461Z,6.00
2023-01-29T07:38:51.163Z,6.87
2023-01-29T07:41:17.770Z,8.40
2023-01-29T07:43:44.374Z,7.13
2023-01-29T07:46:11.295Z,7.30
2023-01-29T07:48:38.076Z,6.60
2023-01-29T07:51:04.970Z,8.53
2023-01-29T07:53:31.752Z,6.27
2023-01-29T07:55:58.413Z,7.20
2023-01-29T07:58:25.090Z,2.30
2023-01-29T08:00:51.788Z,3.70
2023-01-29T08:03:20.175Z,3.73
2023-01-29T08:05:47.104Z,3.87
2023-01-29T08:08:14.051Z,5.27
2023-01-29T08:10:41.501Z,5.00
2023-01-29T08:13:08.857Z,3.43
2023-01-29T08:15:37.912Z,5.57
2023-01-29T08:18:05.634Z,4.78
2023-01-29T08:20:32.250Z,7.23
2023-01-29T08:23:01.234Z,4.67
2023-01-29T08:25:28.517Z,3.07
2023-01-29T08:27:57.889Z,5.60
2023-01-29T08:30:31.434Z,3.80
2023-01-29T08:32:58.136Z,5.60
2023-01-29T08:35:25.518Z,5.43
2023-01-29T08:38:00.226Z,4.77
2023-01-29T08:40:28.726Z,4.63
2023-01-29T08:43:03.518Z,6.47
2023-01-29T08:45:34.891Z,6.03
2023-01-29T08:48:02.325Z,7.40
2023-01-29T08:50:30.890Z,5.67
2023-01-29T08:53:02.537Z,5.93
2023-01-29T08:55:29.902Z,6.33
2023-01-29T08:57:59.263Z,7.37
2023-01-29T09:00:25.980Z,5.10
2023-01-29T09:02:52.616Z,6.13
2023-01-29T09:05:19.643Z,6.43
2023-01-29T09:07:46.403Z,6.37
2023-01-29T09:10:13.463Z,8.00
2023-01-29T09:12:40.050Z,6.63
2023-01-29T09:15:07.184Z,7.37
2023-01-29T09:17:33.785Z,5.90
2023-01-29T09:20:00.415Z,5.70
2023-01-29T09:22:27.133Z,5.93
2023-01-29T09:24:53.683Z,5.73
2023-01-29T09:27:20.329Z,7.17
2023-01-29T09:29:46.860Z,7.80
2023-01-29T09:32:13.434Z,4.50
2023-01-29T09:34:40.081Z,7.77
2023-01-29T09:37:06.752Z,5.67
2023-01-29T09:39:33.355Z,4.27
2023-01-29T09:42:15.101Z,5.17
2023-01-29T09:45:05.944Z,4.67
2023-01-29T09:47:35.825Z,7.88
2023-01-29T09:50:18.998Z,6.17
2023-01-29T09:53:11.455Z,6.07
2023-01-29T09:55:46.357Z,10.13
2023-01-29T09:58:24.418Z,5.43
2023-01-29T10:01:09.285Z,4.43
2023-01-29T10:04:07.076Z,7.03
2023-01-29T10:06:45.737Z,6.60
2023-01-29T10:09:31.041Z,8.17
2023-01-29T10:12:19.604Z,7.27
2023-01-29T10:14:49.120Z,9.67
2023-01-29T10:17:57.514Z,13.23
2023-01-29T10:20:39.129Z,8.90
2023-01-29T10:23:20.867Z,6.87
2023-01-29T10:25:49.058Z,6.50
2023-01-29T10:28:28.159Z,5.33
2023-01-29T10:31:07.018Z,6.50
2023-01-29T10:33:54.266Z,5.00
2023-01-29T10:36:38.701Z,4.83
2023-01-29T10:39:05.524Z,7.47
2023-01-29T10:41:38.170Z,6.03
2023-01-29T10:44:27.915Z,8.10
2023-01-29T10:47:45.979Z,7.57
2023-01-29T10:50:12.662Z,5.00
2023-01-29T10:53:30.625Z,3.67
2023-01-29T10:56:23.160Z,5.03
2023-01-29T10:59:27.924Z,6.23
2023-01-29T11:01:59.431Z,5.27
2023-01-29T11:04:28.382Z,8.00
2023-01-29T11:06:54.993Z,4.77
2023-01-29T11:09:29.562Z,4.33
2023-01-29T11:12:16.598Z,4.80
2023-01-29T11:14:54.338Z,5.07
2023-01-29T11:17:26.026Z,8.67
2023-01-29T11:19:55.737Z,6.77
2023-01-29T11:22:27.373Z,4.13
2023-01-29T11:25:21.316Z,7.73
2023-01-29T11:27:58.189Z,5.80
2023-01-29T11:30:28.543Z,4.43
2023-01-29T11:33:19.629Z,4.72
2023-01-29T11:35:46.681Z,6.35
2023-01-29T11:38:16.294Z,5.40
2023-01-29T11:40:44.045Z,5.33
2023-01-29T11:43:16.824Z,7.50
2023-01-29T11:45:44.172Z,13.10
2023-01-29T11:48:21.809Z,5.67
2023-01-29T11:51:00.616Z,7.77
2023-01-29T11:53:37.720Z,7.73
2023-01-29T11:56:21.418Z,7.40
2023-01-29T11:58:50.133Z,6.07
2023-01-29T12:01:24.048Z,5.93
2023-01-29T12:03:53.990Z,5.13
2023-01-29T12:06:24.314Z,5.17
2023-01-29T12:09:00.158Z,7.15
2023-01-29T12:11:31.374Z,6.73
2023-01-29T12:14:01.123Z,6.70
2023-01-29T12:16:40.588Z,10.17
2023-01-29T12:19:21.510Z,7.30
2023-01-29T12:21:55.439Z,6.85
2023-01-29T12:24:44.907Z,6.23
2023-01-29T12:27:21.961Z,7.60
2023-01-29T12:29:57.142Z,4.63
2023-01-29T12:32:35.724Z,5.97
2023-01-29T12:35:16.299Z,6.93
2023-01-29T12:37:42.864Z,8.70
2023-01-29T12:40:16.011Z,6.17
2023-01-29T12:42:50.098Z,8.93
2023-01-29T12:45:23.435Z,6.63
2023-01-29T12:47:57.829Z,7.37
2023-01-29T12:50:29.292Z,9.20
2023-01-29T12:53:07.508Z,7.70
2023-01-29T12:55:44.722Z,6.22
2023-01-29T12:58:23.788Z,6.03
2023-01-29T13:00:54.542Z,7.93
2023-01-29T13:03:29.916Z,7.00
2023-01-29T13:06:02.731Z,9.48
2023-01-29T13:08:45.726Z,11.23
2023-01-29T13:11:31.182Z,9.07
2023-01-29T13:14:13.397Z,6.90
2023-01-29T13:16:45.661Z,6.18
2023-01-29T13:19:33.120Z,7.45
2023-01-29T13:22:02.367Z,10.15
2023-01-29T13:24:39.424Z,7.40
2023-01-29T13:27:06.413Z,7.43
2023-01-29T13:29:33.861Z,8.65
2023-01-29T13:32:03.539Z,8.40
2023-01-29T13:34:33.504Z,8.80
2023-01-29T13:37:10.940Z,9.93
2023-01-29T13:39:45.165Z,8.27
2023-01-29T13:42:21.837Z,11.77
2023-01-29T13:44:54.462Z,10.55
2023-01-29T13:47:28.091Z,9.43
2023-01-29T13:50:00.631Z,10.95
2023-01-29T13:53:01.518Z,8.95
2023-01-29T13:55:40.975Z,9.43
2023-01-29T13:58:16.290Z,11.07
2023-01-29T14:00:42.742Z,12.93
2023-01-29T14:03:11.720Z,9.48
2023-01-29T14:05:39.920Z,8.90
2023-01-29T14:08:26.343Z,14.07
2023-01-29T14:11:35.886Z,10.05
2023-01-29T14:14:02.508Z,9.23
2023-01-29T14:16:35.610Z,9.43
2023-01-29T14:19:04.984Z,9.40
2023-01-29T14:21:34.256Z,14.30
2023-01-29T14:24:21.253Z,12.63
2023-01-29T14:26:54.260Z,10.15
2023-01-29T14:32:20.571Z,10.23
2023-01-29T14:32:42.641Z,11.70
2023-01-29T14:35:10.060Z,11.40
2023-01-29T14:38:14.554Z,10.10
2023-01-29T14:55:07.067Z,10.40
2023-01-29T14:57:34.421Z,13.98
2023-01-29T15:00:05.477Z,14.63
2023-01-29T15:05:28.958Z,14.13
2023-01-29T15:08:00.951Z,10.35
2023-01-29T15:10:40.086Z,11.93
2023-01-29T15:13:20.636Z,10.07
2023-01-29T15:15:58.003Z,11.93
2023-01-29T15:18:39.902Z,13.82
2023-01-29T15:21:16.617Z,11.07
2023-01-29T15:23:44.627Z,10.20
2023-01-29T15:26:19.719Z,11.30
2023-01-29T15:29:05.122Z,13.52
2023-01-29T15:31:32.407Z,9.83
2023-01-29T15:34:07.698Z,13.52
2023-01-29T15:36:36.775Z,11.98
2023-01-29T15:39:09.540Z,10.77
2023-01-29T15:41:36.168Z,11.38
2023-01-29T15:44:02.731Z,12.63
2023-01-29T15:46:35.895Z,14.00
2023-01-29T15:49:08.578Z,11.80
2023-01-29T15:51:35.718Z,13.90
2023-01-29T15:54:10.919Z,14.80
2023-01-29T15:56:41.409Z,15.00
2023-01-29T15:59:13.565Z,16.88
2023-01-29T16:01:40.254Z,12.20
2023-01-29T16:04:13.984Z,12.17
2023-01-29T16:06:42.663Z,13.97
2023-01-29T16:09:17.735Z,14.00
2023-01-29T16:11:45.493Z,14.90
2023-01-29T16:14:16.369Z,13.10
2023-01-29T16:16:45.282Z,14.50
2023-01-29T16:19:27.223Z,10.83
2023-01-29T16:22:01.312Z,10.93
2023-01-29T16:24:29.569Z,15.47
2023-01-29T16:27:11.381Z,15.80
2023-01-29T16:29:38.975Z,14.37
2023-01-29T16:32:06.859Z,15.60
2023-01-29T16:34:39.959Z,16.27
2023-01-29T16:37:31.325Z,17.33
2023-01-29T16:42:35.813Z,14.50
2023-01-29T16:45:03.712Z,16.63
2023-01-29T16:47:38.971Z,18.20
2023-01-29T16:50:17.733Z,21.27
2023-01-29T16:53:00.432Z,23.97
2023-01-29T16:55:42.641Z,19.13
2023-01-29T16:58:21.492Z,19.50
2023-01-29T17:00:54.439Z,19.50
2023-01-29T17:03:21.661Z,21.93
2023-01-29T17:05:48.821Z,24.70
2023-01-29T17:08:33.399Z,19.80
2023-01-29T17:11:00.673Z,20.13
2023-01-29T17:13:44.278Z,21.33
2023-01-29T17:16:48.843Z,22.33
2023-01-29T17:19:22.569Z,20.83
2023-01-29T17:21:49.702Z,21.70
2023-01-29T17:24:16.369Z,30.13
2023-01-29T17:26:43.153Z,20.73
2023-01-29T17:29:20.784Z,23.27
2023-01-29T17:31:47.602Z,20.13
2023-01-29T17:34:15.806Z,19.23
2023-01-29T17:36:43.253Z,19.87
2023-01-29T17:39:21.063Z,16.17
2023-01-29T17:41:51.025Z,15.80
2023-01-29T17:44:18.357Z,19.37
2023-01-29T17:46:46.254Z,16.53
2023-01-29T17:49:32.512Z,21.73
2023-01-29T17:51:59.171Z,16.60
2023-01-29T17:54:26.045Z,19.13
2023-01-29T17:56:53.660Z,16.90
2023-01-29T17:59:26.186Z,21.43
2023-01-29T18:01:53.593Z,19.30
2023-01-29T18:04:20.570Z,19.57
2023-01-29T18:06:50.231Z,19.87
2023-01-29T18:09:20.441Z,18.90
2023-01-29T18:11:48.504Z,20.08
2023-01-29T18:14:19.068Z,21.37
2023-01-29T18:16:46.039Z,19.10
2023-01-29T18:19:15.315Z,22.37
2023-01-29T18:21:42.027Z,15.50
2023-01-29T18:24:08.681Z,15.60
2023-01-29T18:26:36.023Z,16.70
2023-01-29T18:29:03.444Z,21.80
2023-01-29T18:31:30.249Z,18.07
2023-01-29T18:33:56.903Z,16.63
2023-01-29T18:36:23.762Z,19.43
2023-01-29T18:38:50.325Z,26.57
2023-01-29T18:41:17.033Z,24.63
2023-01-29T18:43:44.234Z,23.77
2023-01-29T18:46:11.147Z,21.70
2023-01-29T18:48:37.778Z,21.93
2023-01-29T18:51:04.578Z,21.00
2023-01-29T18:53:32.818Z,25.53
2023-01-29T18:56:04.537Z,19.93
2023-01-29T18:58:35.085Z,25.47
2023-01-29T19:01:10.802Z,22.83
2023-01-29T19:03:38.759Z,21.93
2023-01-29T19:06:07.988Z,21.93
2023-01-29T19:08:35.125Z,27.40
2023-01-29T19:11:03.875Z,27.63
2023-01-29T19:13:31.887Z,34.20
2023-01-29T19:15:58.771Z,31.00
2023-01-29T19:18:28.386Z,30.47
2023-01-29T19:20:55.441Z,32.73
2023-01-29T19:23:22.529Z,34.40
2023-01-29T19:25:49.121Z,32.73
2023-01-29T19:28:15.798Z,33.13
2023-01-29T19:30:42.606Z,25.10
2023-01-29T19:33:10.178Z,33.40
2023-01-29T19:35:36.794Z,26.80
2023-01-29T19:38:04.657Z,24.73
2023-01-29T19:40:31.637Z,28.57
2023-01-29T19:42:58.672Z,19.40
2023-01-29T19:45:49.508Z,27.23
2023-01-29T19:48:14.577Z,21.33
2023-01-29T19:50:41.755Z,22.83
2023-01-29T19:53:08.320Z,23.53
2023-01-29T19:55:34.852Z,22.60
2023-01-29T19:58:03.503Z,21.50
2023-01-29T20:00:30.099Z,29.67
2023-01-29T20:02:56.700Z,17.50
2023-01-29T20:05:24.107Z,21.07
2023-01-29T20:07:51.392Z,18.93
2023-01-29T20:10:18.575Z,19.13
2023-01-29T20:12:46.242Z,16.80
2023-01-29T20:15:14.385Z,18.07
2023-01-29T20:17:41.102Z,17.87
2023-01-29T20:20:08.776Z,16.43
2023-01-29T20:22:35.548Z,17.30
2023-01-29T20:25:02.323Z,17.63
2023-01-29T20:27:28.925Z,18.10
2023-01-29T20:29:55.701Z,19.50
2023-01-29T20:32:22.363Z,16.97
2023-01-29T20:34:52.139Z,19.10
2023-01-29T20:37:19.918Z,18.97
2023-01-29T20:39:47.282Z,16.87
2023-01-29T20:42:14.070Z,14.97
2023-01-29T20:44:40.728Z,15.33
2023-01-29T20:47:07.318Z,22.93
2023-01-29T20:49:34.067Z,28.97
2023-01-29T20:52:00.659Z,18.07
2023-01-29T20:54:29.347Z,20.20
2023-01-29T20:56:56.033Z,16.93
2023-01-29T20:59:23.125Z,15.93
2023-01-29T21:01:49.755Z,19.93
2023-01-29T21:04:16.381Z,19.60
2023-01-29T21:06:42.971Z,29.33
2023-01-29T21:09:09.588Z,21.87
2023-01-29T21:11:36.213Z,17.57
2023-01-29T21:14:02.792Z,19.13
2023-01-29T21:16:29.414Z,16.07
2023-01-29T21:18:59.315Z,20.07
2023-01-29T21:21:26.745Z,18.40
2023-01-29T21:23:53.881Z,13.97
2023-01-29T21:26:20.845Z,18.53
2023-01-29T21:28:47.550Z,18.40
2023-01-29T21:31:16.238Z,16.40
2023-01-29T21:33:43.248Z,18.20
2023-01-29T21:36:10.702Z,18.63
2023-01-29T21:38:37.369Z,15.13
2023-01-29T21:41:07.053Z,19.13
2023-01-29T21:43:33.649Z,15.67
2023-01-29T21:46:04.990Z,15.37
2023-01-29T21:48:31.913Z,14.80
2023-01-29T21:50:58.521Z,19.30
2023-01-29T21:53:25.168Z,17.77
2023-01-29T21:55:51.879Z,20.57
2023-01-29T21:58:20.701Z,16.77
2023-01-29T22:00:48.754Z,14.93
2023-01-29T22:03:15.652Z,16.17
2023-01-29T22:05:42.336Z,17.57
2023-01-29T22:08:09.686Z,16.03
2023-01-29T22:10:36.697Z,15.17
2023-01-29T22:13:03.782Z,17.50
2023-01-29T22:15:30.423Z,13.93
2023-01-29T22:17:57.056Z,20.80
2023-01-29T22:20:30.267Z,22.47
2023-01-29T22:22:59.427Z,17.93
2023-01-29T22:25:26.535Z,18.27
2023-01-29T22:27:53.242Z,16.03
2023-01-29T22:30:20.494Z,26.50
2023-01-29T22:32:47.315Z,18.80
2023-01-29T22:35:14.023Z,22.40
2023-01-29T22:37:40.696Z,16.30
2023-01-29T22:40:07.807Z,17.87
2023-01-29T22:42:34.402Z,18.40
2023-01-29T22:45:01.043Z,17.80
2023-01-29T22:47:27.577Z,21.40
2023-01-29T22:49:54.095Z,17.30
2023-01-29T22:52:22.050Z,15.50
2023-01-29T22:54:48.649Z,16.83
2023-01-29T22:57:15.951Z,17.03
2023-01-29T22:59:42.591Z,19.60
2023-01-29T23:02:09.546Z,20.83
2023-01-29T23:04:36.298Z,23.77
2023-01-29T23:07:03.592Z,24.10
2023-01-29T23:09:30.181Z,17.60
2023-01-29T23:11:56.725Z,25.50
2023-01-29T23:14:23.351Z,19.00
2023-01-29T23:16:49.970Z,19.47
2023-01-29T23:19:16.574Z,16.17
2023-01-29T23:21:43.510Z,23.10
2023-01-29T23:24:10.516Z,19.17
2023-01-29T23:26:55.651Z,17.63
2023-01-29T23:29:22.323Z,20.77
2023-01-29T23:31:49.013Z,23.73
2023-01-29T23:34:16.158Z,20.47
2023-01-29T23:36:42.981Z,19.30
2023-01-29T23:39:10.353Z,22.70
2023-01-29T23:41:37.009Z,18.00
2023-01-29T23:44:04.169Z,24.40
2023-01-29T23:46:31.013Z,17.27
2023-01-29T23:48:57.706Z,15.83
2023-01-29T23:51:24.516Z,25.83
2023-01-29T23:53:51.073Z,21.63
2023-01-29T23:56:17.935Z,18.50
2023-01-29T23:58:44.847Z,26.97
